sensor_id;sensor_type;location;lat;lon;timestamp;P1;durP1;ratioP1;P2;durP2;ratioP2
15261;SDS011;7733;51.554;13.590;2023-05-20T00:00:28;5.80;;;5.40;;
15261;SDS011;7733;51.554;13.590;2023-05-20T00:02:54;6.57;;;6.00;;
15261;SDS011;7733;51.554;13.590;2023-05-20T00:05:19;5.33;;;4.87;;
15261;SDS011;7733;51.554;13.590;2023-05-20T00:07:45;6.57;;;5.97;;
15261;SDS011;7733;51.554;13.590;2023-05-20T00:10:11;6.70;;;5.67;;
15261;SDS011;7733;51.554;13.590;2023-05-20T00:12:37;5.60;;;5.23;;
15261;SDS011;7733;51.554;13.590;2023-05-20T00:15:03;6.03;;;5.30;;
15261;SDS011;7733;51.554;13.590;2023-05-20T00:17:30;5.93;;;5.43;;
15261;SDS011;7733;51.554;13.590;2023-05-20T00:19:56;5.67;;;5.27;;
15261;SDS011;7733;51.554;13.590;2023-05-20T00:22:24;5.70;;;5.27;;
15261;SDS011;7733;51.554;13.590;2023-05-20T00:24:49;6.13;;;5.63;;
15261;SDS011;7733;51.554;13.590;2023-05-20T00:27:15;6.07;;;5.47;;
15261;SDS011;7733;51.554;13.590;2023-05-20T00:29:41;7.33;;;5.77;;
15261;SDS011;7733;51.554;13.590;2023-05-20T00:32:07;6.13;;;5.53;;
15261;SDS011;7733;51.554;13.590;2023-05-20T00:34:32;5.60;;;5.20;;
15261;SDS011;7733;51.554;13.590;2023-05-20T00:36:58;6.40;;;5.93;;
15261;SDS011;7733;51.554;13.590;2023-05-20T00:39:24;6.10;;;5.70;;
15261;SDS011;7733;51.554;13.590;2023-05-20T00:41:50;6.43;;;5.93;;
15261;SDS011;7733;51.554;13.590;2023-05-20T00:44:16;6.43;;;6.00;;
15261;SDS011;7733;51.554;13.590;2023-05-20T00:46:43;6.10;;;5.70;;
15261;SDS011;7733;51.554;13.590;2023-05-20T00:49:12;5.70;;;5.30;;
15261;SDS011;7733;51.554;13.590;2023-05-20T00:51:38;6.63;;;5.93;;
15261;SDS011;7733;51.554;13.590;2023-05-20T00:54:04;6.90;;;6.33;;
15261;SDS011;7733;51.554;13.590;2023-05-20T00:56:30;5.77;;;5.37;;
15261;SDS011;7733;51.554;13.590;2023-05-20T00:58:56;5.90;;;5.50;;
15261;SDS011;7733;51.554;13.590;2023-05-20T01:01:22;6.97;;;6.37;;
15261;SDS011;7733;51.554;13.590;2023-05-20T01:03:48;6.47;;;5.73;;
15261;SDS011;7733;51.554;13.590;2023-05-20T01:06:14;6.33;;;5.77;;
15261;SDS011;7733;51.554;13.590;2023-05-20T01:08:40;6.00;;;5.60;;
15261;SDS011;7733;51.554;13.590;2023-05-20T01:11:07;8.90;;;6.17;;
15261;SDS011;7733;51.554;13.590;2023-05-20T01:13:57;6.03;;;5.53;;
15261;SDS011;7733;51.554;13.590;2023-05-20T01:16:30;6.17;;;5.57;;
15261;SDS011;7733;51.554;13.590;2023-05-20T01:18:59;6.17;;;5.57;;
15261;SDS011;7733;51.554;13.590;2023-05-20T01:21:30;7.10;;;6.50;;
15261;SDS011;7733;51.554;13.590;2023-05-20T01:23:58;6.90;;;6.30;;
15261;SDS011;7733;51.554;13.590;2023-05-20T01:26:25;7.30;;;6.67;;
15261;SDS011;7733;51.554;13.590;2023-05-20T01:28:51;6.87;;;6.23;;
15261;SDS011;7733;51.554;13.590;2023-05-20T01:31:21;6.93;;;6.43;;
15261;SDS011;7733;51.554;13.590;2023-05-20T01:33:54;6.60;;;6.10;;
15261;SDS011;7733;51.554;13.590;2023-05-20T01:36:22;7.20;;;6.60;;
15261;SDS011;7733;51.554;13.590;2023-05-20T01:38:50;6.80;;;6.20;;
15261;SDS011;7733;51.554;13.590;2023-05-20T01:41:19;7.90;;;6.20;;
15261;SDS011;7733;51.554;13.590;2023-05-20T01:43:48;7.90;;;6.60;;
15261;SDS011;7733;51.554;13.590;2023-05-20T01:46:14;7.00;;;6.40;;
15261;SDS011;7733;51.554;13.590;2023-05-20T01:48:40;6.97;;;6.47;;
15261;SDS011;7733;51.554;13.590;2023-05-20T01:51:06;6.60;;;6.10;;
15261;SDS011;7733;51.554;13.590;2023-05-20T01:53:32;6.57;;;6.07;;
15261;SDS011;7733;51.554;13.590;2023-05-20T01:55:57;7.60;;;6.90;;
15261;SDS011;7733;51.554;13.590;2023-05-20T01:58:23;7.30;;;6.60;;
15261;SDS011;7733;51.554;13.590;2023-05-20T02:00:49;6.67;;;6.17;;
15261;SDS011;7733;51.554;13.590;2023-05-20T02:03:15;7.37;;;6.70;;
15261;SDS011;7733;51.554;13.590;2023-05-20T02:05:41;7.37;;;6.67;;
15261;SDS011;7733;51.554;13.590;2023-05-20T02:08:07;6.93;;;6.43;;
15261;SDS011;7733;51.554;13.590;2023-05-20T02:10:33;6.63;;;6.13;;
15261;SDS011;7733;51.554;13.590;2023-05-20T02:12:59;7.50;;;7.00;;
15261;SDS011;7733;51.554;13.590;2023-05-20T02:15:24;7.30;;;6.60;;
15261;SDS011;7733;51.554;13.590;2023-05-20T02:17:50;7.17;;;6.70;;
15261;SDS011;7733;51.554;13.590;2023-05-20T02:20:16;7.67;;;6.93;;
15261;SDS011;7733;51.554;13.590;2023-05-20T02:22:42;7.23;;;6.70;;
15261;SDS011;7733;51.554;13.590;2023-05-20T02:25:07;7.10;;;6.50;;
15261;SDS011;7733;51.554;13.590;2023-05-20T02:27:34;7.60;;;6.97;;
15261;SDS011;7733;51.554;13.590;2023-05-20T02:30:00;7.40;;;6.80;;
15261;SDS011;7733;51.554;13.590;2023-05-20T02:32:26;7.40;;;6.77;;
15261;SDS011;7733;51.554;13.590;2023-05-20T02:34:53;7.70;;;7.10;;
15261;SDS011;7733;51.554;13.590;2023-05-20T02:37:19;8.07;;;7.37;;
15261;SDS011;7733;51.554;13.590;2023-05-20T02:39:45;7.40;;;6.80;;
15261;SDS011;7733;51.554;13.590;2023-05-20T02:42:11;7.60;;;7.00;;
15261;SDS011;7733;51.554;13.590;2023-05-20T02:44:36;8.53;;;7.20;;
15261;SDS011;7733;51.554;13.590;2023-05-20T02:47:02;8.23;;;7.50;;
15261;SDS011;7733;51.554;13.590;2023-05-20T02:49:28;8.03;;;7.43;;
15261;SDS011;7733;51.554;13.590;2023-05-20T02:51:54;8.33;;;7.67;;
15261;SDS011;7733;51.554;13.590;2023-05-20T02:54:20;10.50;;;7.53;;
15261;SDS011;7733;51.554;13.590;2023-05-20T02:56:46;7.90;;;7.30;;
15261;SDS011;7733;51.554;13.590;2023-05-20T02:59:12;8.33;;;7.53;;
15261;SDS011;7733;51.554;13.590;2023-05-20T03:01:37;7.77;;;7.17;;
15261;SDS011;7733;51.554;13.590;2023-05-20T03:04:04;7.90;;;7.30;;
15261;SDS011;7733;51.554;13.590;2023-05-20T03:06:30;8.77;;;8.07;;
15261;SDS011;7733;51.554;13.590;2023-05-20T03:08:56;8.47;;;7.73;;
15261;SDS011;7733;51.554;13.590;2023-05-20T03:11:22;8.70;;;7.90;;
15261;SDS011;7733;51.554;13.590;2023-05-20T03:13:48;8.90;;;8.10;;
15261;SDS011;7733;51.554;13.590;2023-05-20T03:16:14;8.57;;;7.87;;
15261;SDS011;7733;51.554;13.590;2023-05-20T03:18:40;8.53;;;7.90;;
15261;SDS011;7733;51.554;13.590;2023-05-20T03:21:06;9.10;;;8.20;;
15261;SDS011;7733;51.554;13.590;2023-05-20T03:23:33;8.60;;;7.90;;
15261;SDS011;7733;51.554;13.590;2023-05-20T03:25:59;8.97;;;8.27;;
15261;SDS011;7733;51.554;13.590;2023-05-20T03:28:25;8.40;;;7.80;;
15261;SDS011;7733;51.554;13.590;2023-05-20T03:30:51;9.13;;;8.33;;
15261;SDS011;7733;51.554;13.590;2023-05-20T03:33:17;9.53;;;8.73;;
15261;SDS011;7733;51.554;13.590;2023-05-20T03:35:43;9.30;;;8.40;;
15261;SDS011;7733;51.554;13.590;2023-05-20T03:38:08;8.90;;;8.20;;
15261;SDS011;7733;51.554;13.590;2023-05-20T03:40:34;9.10;;;8.30;;
15261;SDS011;7733;51.554;13.590;2023-05-20T03:43:00;9.40;;;8.57;;
15261;SDS011;7733;51.554;13.590;2023-05-20T03:45:25;9.33;;;8.57;;
15261;SDS011;7733;51.554;13.590;2023-05-20T03:47:51;9.03;;;8.33;;
15261;SDS011;7733;51.554;13.590;2023-05-20T03:50:17;9.10;;;8.30;;
15261;SDS011;7733;51.554;13.590;2023-05-20T03:52:43;9.03;;;8.23;;
15261;SDS011;7733;51.554;13.590;2023-05-20T03:55:09;10.40;;;9.30;;
15261;SDS011;7733;51.554;13.590;2023-05-20T03:57:34;9.97;;;8.97;;
15261;SDS011;7733;51.554;13.590;2023-05-20T04:00:00;9.73;;;8.87;;
15261;SDS011;7733;51.554;13.590;2023-05-20T04:02:32;9.20;;;8.50;;
15261;SDS011;7733;51.554;13.590;2023-05-20T04:04:58;9.70;;;8.77;;
15261;SDS011;7733;51.554;13.590;2023-05-20T04:07:25;9.67;;;8.80;;
15261;SDS011;7733;51.554;13.590;2023-05-20T04:09:50;10.03;;;9.23;;
15261;SDS011;7733;51.554;13.590;2023-05-20T04:12:16;9.70;;;9.00;;
15261;SDS011;7733;51.554;13.590;2023-05-20T04:14:43;9.30;;;8.60;;
15261;SDS011;7733;51.554;13.590;2023-05-20T04:17:08;10.67;;;9.53;;
15261;SDS011;7733;51.554;13.590;2023-05-20T04:19:35;10.30;;;9.40;;
15261;SDS011;7733;51.554;13.590;2023-05-20T04:22:02;11.33;;;10.30;;
15261;SDS011;7733;51.554;13.590;2023-05-20T04:24:28;10.83;;;9.93;;
15261;SDS011;7733;51.554;13.590;2023-05-20T04:26:54;10.20;;;9.27;;
15261;SDS011;7733;51.554;13.590;2023-05-20T04:29:20;10.23;;;9.43;;
15261;SDS011;7733;51.554;13.590;2023-05-20T04:31:45;10.03;;;9.13;;
15261;SDS011;7733;51.554;13.590;2023-05-20T04:34:12;10.60;;;9.70;;
15261;SDS011;7733;51.554;13.590;2023-05-20T04:36:38;11.60;;;10.33;;
15261;SDS011;7733;51.554;13.590;2023-05-20T04:39:04;10.43;;;9.53;;
15261;SDS011;7733;51.554;13.590;2023-05-20T04:41:32;11.37;;;10.17;;
15261;SDS011;7733;51.554;13.590;2023-05-20T04:43:57;11.10;;;10.20;;
15261;SDS011;7733;51.554;13.590;2023-05-20T04:46:26;11.20;;;10.20;;
15261;SDS011;7733;51.554;13.590;2023-05-20T04:48:52;11.87;;;10.67;;
15261;SDS011;7733;51.554;13.590;2023-05-20T04:51:18;11.27;;;10.13;;
15261;SDS011;7733;51.554;13.590;2023-05-20T04:53:44;11.10;;;10.10;;
15261;SDS011;7733;51.554;13.590;2023-05-20T04:56:10;10.90;;;9.83;;
15261;SDS011;7733;51.554;13.590;2023-05-20T04:58:37;12.00;;;10.30;;
15261;SDS011;7733;51.554;13.590;2023-05-20T05:01:03;11.27;;;10.30;;
15261;SDS011;7733;51.554;13.590;2023-05-20T05:03:29;11.20;;;10.20;;
15261;SDS011;7733;51.554;13.590;2023-05-20T05:05:55;12.20;;;11.20;;
15261;SDS011;7733;51.554;13.590;2023-05-20T05:08:22;14.70;;;10.67;;
15261;SDS011;7733;51.554;13.590;2023-05-20T05:10:49;11.77;;;10.77;;
15261;SDS011;7733;51.554;13.590;2023-05-20T05:13:15;12.13;;;11.03;;
15261;SDS011;7733;51.554;13.590;2023-05-20T05:15:40;12.20;;;11.20;;
15261;SDS011;7733;51.554;13.590;2023-05-20T05:18:06;13.23;;;12.13;;
15261;SDS011;7733;51.554;13.590;2023-05-20T05:20:32;12.47;;;11.17;;
15261;SDS011;7733;51.554;13.590;2023-05-20T05:22:57;12.17;;;11.07;;
15261;SDS011;7733;51.554;13.590;2023-05-20T05:25:23;12.77;;;11.77;;
15261;SDS011;7733;51.554;13.590;2023-05-20T05:27:49;12.60;;;11.43;;
15261;SDS011;7733;51.554;13.590;2023-05-20T05:30:15;13.57;;;12.30;;
15261;SDS011;7733;51.554;13.590;2023-05-20T05:32:41;13.40;;;12.00;;
15261;SDS011;7733;51.554;13.590;2023-05-20T05:35:06;13.50;;;12.30;;
15261;SDS011;7733;51.554;13.590;2023-05-20T05:37:33;13.57;;;12.27;;
15261;SDS011;7733;51.554;13.590;2023-05-20T05:39:58;13.07;;;11.97;;
15261;SDS011;7733;51.554;13.590;2023-05-20T05:42:24;13.97;;;12.70;;
15261;SDS011;7733;51.554;13.590;2023-05-20T05:44:50;13.23;;;12.00;;
15261;SDS011;7733;51.554;13.590;2023-05-20T05:47:16;15.27;;;12.90;;
15261;SDS011;7733;51.554;13.590;2023-05-20T05:49:41;14.37;;;12.97;;
15261;SDS011;7733;51.554;13.590;2023-05-20T05:52:07;14.10;;;12.73;;
15261;SDS011;7733;51.554;13.590;2023-05-20T05:54:33;15.37;;;13.90;;
15261;SDS011;7733;51.554;13.590;2023-05-20T05:56:59;15.10;;;13.77;;
15261;SDS011;7733;51.554;13.590;2023-05-20T05:59:24;15.20;;;13.77;;
15261;SDS011;7733;51.554;13.590;2023-05-20T06:01:50;15.10;;;13.80;;
15261;SDS011;7733;51.554;13.590;2023-05-20T06:04:16;15.93;;;14.43;;
15261;SDS011;7733;51.554;13.590;2023-05-20T06:06:41;16.40;;;14.23;;
15261;SDS011;7733;51.554;13.590;2023-05-20T06:09:07;14.63;;;13.23;;
15261;SDS011;7733;51.554;13.590;2023-05-20T06:11:33;16.13;;;14.60;;
15261;SDS011;7733;51.554;13.590;2023-05-20T06:13:59;16.97;;;15.33;;
15261;SDS011;7733;51.554;13.590;2023-05-20T06:16:26;16.20;;;14.70;;
15261;SDS011;7733;51.554;13.590;2023-05-20T06:18:52;16.23;;;14.67;;
15261;SDS011;7733;51.554;13.590;2023-05-20T06:21:21;16.13;;;14.73;;
15261;SDS011;7733;51.554;13.590;2023-05-20T06:23:47;15.80;;;14.30;;
15261;SDS011;7733;51.554;13.590;2023-05-20T06:26:13;15.43;;;14.13;;
15261;SDS011;7733;51.554;13.590;2023-05-20T06:28:39;15.77;;;14.27;;
15261;SDS011;7733;51.554;13.590;2023-05-20T06:31:05;16.53;;;14.07;;
15261;SDS011;7733;51.554;13.590;2023-05-20T06:33:31;15.43;;;14.13;;
15261;SDS011;7733;51.554;13.590;2023-05-20T06:35:57;18.60;;;14.43;;
15261;SDS011;7733;51.554;13.590;2023-05-20T06:38:23;16.23;;;14.53;;
15261;SDS011;7733;51.554;13.590;2023-05-20T06:40:49;16.80;;;15.07;;
15261;SDS011;7733;51.554;13.590;2023-05-20T06:43:15;16.03;;;14.53;;
15261;SDS011;7733;51.554;13.590;2023-05-20T06:45:41;15.90;;;14.50;;
15261;SDS011;7733;51.554;13.590;2023-05-20T06:48:08;16.47;;;14.97;;
15261;SDS011;7733;51.554;13.590;2023-05-20T06:50:34;15.80;;;14.40;;
15261;SDS011;7733;51.554;13.590;2023-05-20T06:53:00;16.70;;;15.10;;
15261;SDS011;7733;51.554;13.590;2023-05-20T06:55:26;15.73;;;14.37;;
15261;SDS011;7733;51.554;13.590;2023-05-20T06:57:52;16.13;;;14.63;;
15261;SDS011;7733;51.554;13.590;2023-05-20T07:00:18;17.30;;;15.60;;
15261;SDS011;7733;51.554;13.590;2023-05-20T07:02:43;16.97;;;15.43;;
15261;SDS011;7733;51.554;13.590;2023-05-20T07:05:10;16.03;;;14.63;;
15261;SDS011;7733;51.554;13.590;2023-05-20T07:07:36;16.53;;;15.13;;
15261;SDS011;7733;51.554;13.590;2023-05-20T07:10:03;17.67;;;15.97;;
15261;SDS011;7733;51.554;13.590;2023-05-20T07:12:30;17.17;;;15.47;;
15261;SDS011;7733;51.554;13.590;2023-05-20T07:14:57;16.77;;;15.27;;
15261;SDS011;7733;51.554;13.590;2023-05-20T07:17:23;16.60;;;15.10;;
15261;SDS011;7733;51.554;13.590;2023-05-20T07:19:49;17.90;;;16.20;;
15261;SDS011;7733;51.554;13.590;2023-05-20T07:22:16;16.67;;;14.80;;
15261;SDS011;7733;51.554;13.590;2023-05-20T07:24:42;17.97;;;16.10;;
15261;SDS011;7733;51.554;13.590;2023-05-20T07:27:08;17.83;;;16.20;;
15261;SDS011;7733;51.554;13.590;2023-05-20T07:29:34;19.03;;;17.33;;
15261;SDS011;7733;51.554;13.590;2023-05-20T07:32:01;19.80;;;18.00;;
15261;SDS011;7733;51.554;13.590;2023-05-20T07:34:27;18.73;;;17.07;;
15261;SDS011;7733;51.554;13.590;2023-05-20T07:36:53;18.80;;;17.10;;
15261;SDS011;7733;51.554;13.590;2023-05-20T07:39:19;19.80;;;18.00;;
15261;SDS011;7733;51.554;13.590;2023-05-20T07:41:45;18.23;;;16.43;;
15261;SDS011;7733;51.554;13.590;2023-05-20T07:44:11;18.10;;;16.43;;
15261;SDS011;7733;51.554;13.590;2023-05-20T07:46:37;18.47;;;16.77;;
15261;SDS011;7733;51.554;13.590;2023-05-20T07:49:04;19.10;;;17.50;;
15261;SDS011;7733;51.554;13.590;2023-05-20T07:51:30;18.77;;;17.10;;
15261;SDS011;7733;51.554;13.590;2023-05-20T07:53:56;17.30;;;15.90;;
15261;SDS011;7733;51.554;13.590;2023-05-20T07:56:22;18.60;;;16.80;;
15261;SDS011;7733;51.554;13.590;2023-05-20T07:58:52;18.43;;;16.63;;
15261;SDS011;7733;51.554;13.590;2023-05-20T08:01:22;17.93;;;16.33;;
15261;SDS011;7733;51.554;13.590;2023-05-20T08:03:49;18.27;;;16.33;;
15261;SDS011;7733;51.554;13.590;2023-05-20T08:06:15;17.10;;;15.40;;
15261;SDS011;7733;51.554;13.590;2023-05-20T08:08:41;18.20;;;16.60;;
15261;SDS011;7733;51.554;13.590;2023-05-20T08:11:08;18.47;;;16.77;;
15261;SDS011;7733;51.554;13.590;2023-05-20T08:13:34;18.73;;;17.03;;
15261;SDS011;7733;51.554;13.590;2023-05-20T08:16:00;19.30;;;17.40;;
15261;SDS011;7733;51.554;13.590;2023-05-20T08:18:28;17.20;;;15.73;;
15261;SDS011;7733;51.554;13.590;2023-05-20T08:20:54;19.90;;;18.10;;
15261;SDS011;7733;51.554;13.590;2023-05-20T08:23:20;17.47;;;15.97;;
15261;SDS011;7733;51.554;13.590;2023-05-20T08:25:45;17.90;;;16.37;;
15261;SDS011;7733;51.554;13.590;2023-05-20T08:28:12;18.30;;;16.60;;
15261;SDS011;7733;51.554;13.590;2023-05-20T08:30:38;17.50;;;15.73;;
15261;SDS011;7733;51.554;13.590;2023-05-20T08:33:05;17.90;;;16.30;;
15261;SDS011;7733;51.554;13.590;2023-05-20T08:35:31;18.17;;;16.60;;
15261;SDS011;7733;51.554;13.590;2023-05-20T08:37:57;18.50;;;16.87;;
15261;SDS011;7733;51.554;13.590;2023-05-20T08:40:23;18.90;;;17.10;;
15261;SDS011;7733;51.554;13.590;2023-05-20T08:42:50;17.03;;;15.43;;
15261;SDS011;7733;51.554;13.590;2023-05-20T08:45:17;17.77;;;16.20;;
15261;SDS011;7733;51.554;13.590;2023-05-20T08:47:47;17.13;;;15.53;;
15261;SDS011;7733;51.554;13.590;2023-05-20T08:50:14;17.47;;;15.80;;
15261;SDS011;7733;51.554;13.590;2023-05-20T08:52:44;17.47;;;15.80;;
15261;SDS011;7733;51.554;13.590;2023-05-20T08:55:14;17.37;;;15.87;;
15261;SDS011;7733;51.554;13.590;2023-05-20T08:57:51;17.03;;;15.43;;
15261;SDS011;7733;51.554;13.590;2023-05-20T09:00:19;17.60;;;16.00;;
15261;SDS011;7733;51.554;13.590;2023-05-20T09:02:52;17.33;;;15.63;;
15261;SDS011;7733;51.554;13.590;2023-05-20T09:05:20;17.03;;;15.33;;
15261;SDS011;7733;51.554;13.590;2023-05-20T09:07:47;16.67;;;15.17;;
15261;SDS011;7733;51.554;13.590;2023-05-20T09:10:13;16.23;;;14.87;;
15261;SDS011;7733;51.554;13.590;2023-05-20T09:12:39;17.17;;;15.60;;
15261;SDS011;7733;51.554;13.590;2023-05-20T09:15:05;17.57;;;15.93;;
15261;SDS011;7733;51.554;13.590;2023-05-20T09:17:35;16.53;;;15.00;;
15261;SDS011;7733;51.554;13.590;2023-05-20T09:20:20;16.93;;;15.33;;
15261;SDS011;7733;51.554;13.590;2023-05-20T09:22:49;15.77;;;14.47;;
15261;SDS011;7733;51.554;13.590;2023-05-20T09:25:19;16.33;;;14.83;;
15261;SDS011;7733;51.554;13.590;2023-05-20T09:27:47;16.40;;;14.77;;
15261;SDS011;7733;51.554;13.590;2023-05-20T09:30:14;15.03;;;13.73;;
15261;SDS011;7733;51.554;13.590;2023-05-20T09:32:44;14.90;;;13.40;;
15261;SDS011;7733;51.554;13.590;2023-05-20T09:35:16;15.93;;;14.53;;
15261;SDS011;7733;51.554;13.590;2023-05-20T09:37:43;15.80;;;14.40;;
15261;SDS011;7733;51.554;13.590;2023-05-20T09:40:12;15.43;;;14.03;;
15261;SDS011;7733;51.554;13.590;2023-05-20T09:42:43;16.07;;;14.67;;
15261;SDS011;7733;51.554;13.590;2023-05-20T09:45:27;16.23;;;14.80;;
15261;SDS011;7733;51.554;13.590;2023-05-20T09:47:54;16.20;;;14.80;;
15261;SDS011;7733;51.554;13.590;2023-05-20T09:50:23;17.20;;;15.60;;
15261;SDS011;7733;51.554;13.590;2023-05-20T09:52:50;15.77;;;14.40;;
15261;SDS011;7733;51.554;13.590;2023-05-20T09:55:18;16.67;;;15.23;;
15261;SDS011;7733;51.554;13.590;2023-05-20T09:57:46;16.47;;;15.03;;
15261;SDS011;7733;51.554;13.590;2023-05-20T10:00:13;16.67;;;14.97;;
15261;SDS011;7733;51.554;13.590;2023-05-20T10:02:50;16.87;;;15.37;;
15261;SDS011;7733;51.554;13.590;2023-05-20T10:05:20;16.60;;;15.20;;
15261;SDS011;7733;51.554;13.590;2023-05-20T10:10:49;18.73;;;16.93;;
15261;SDS011;7733;51.554;13.590;2023-05-20T10:16:53;19.03;;;17.23;;
15261;SDS011;7733;51.554;13.590;2023-05-20T10:19:34;17.73;;;16.13;;
15261;SDS011;7733;51.554;13.590;2023-05-20T10:24:36;19.97;;;18.07;;
15261;SDS011;7733;51.554;13.590;2023-05-20T10:27:07;20.67;;;18.63;;
15261;SDS011;7733;51.554;13.590;2023-05-20T10:29:42;20.80;;;18.73;;
15261;SDS011;7733;51.554;13.590;2023-05-20T10:32:26;20.43;;;18.53;;
15261;SDS011;7733;51.554;13.590;2023-05-20T10:34:57;20.57;;;18.60;;
15261;SDS011;7733;51.554;13.590;2023-05-20T10:37:26;19.30;;;17.50;;
15261;SDS011;7733;51.554;13.590;2023-05-20T10:40:07;20.07;;;18.07;;
15261;SDS011;7733;51.554;13.590;2023-05-20T10:42:33;19.10;;;17.30;;
15261;SDS011;7733;51.554;13.590;2023-05-20T10:44:59;19.67;;;17.17;;
15261;SDS011;7733;51.554;13.590;2023-05-20T10:47:25;20.27;;;18.37;;
15261;SDS011;7733;51.554;13.590;2023-05-20T10:49:50;20.13;;;18.10;;
15261;SDS011;7733;51.554;13.590;2023-05-20T10:52:16;17.97;;;16.27;;
15261;SDS011;7733;51.554;13.590;2023-05-20T10:54:46;17.27;;;15.47;;
15261;SDS011;7733;51.554;13.590;2023-05-20T10:57:20;16.73;;;15.17;;
15261;SDS011;7733;51.554;13.590;2023-05-20T10:59:47;18.30;;;16.67;;
15261;SDS011;7733;51.554;13.590;2023-05-20T11:02:14;19.10;;;17.27;;
15261;SDS011;7733;51.554;13.590;2023-05-20T11:04:41;17.63;;;16.00;;
15261;SDS011;7733;51.554;13.590;2023-05-20T11:07:08;18.63;;;16.37;;
15261;SDS011;7733;51.554;13.590;2023-05-20T11:09:34;17.87;;;16.27;;
15261;SDS011;7733;51.554;13.590;2023-05-20T11:12:04;16.70;;;15.20;;
15261;SDS011;7733;51.554;13.590;2023-05-20T11:14:31;16.10;;;14.70;;
15261;SDS011;7733;51.554;13.590;2023-05-20T11:16:57;17.47;;;15.87;;
15261;SDS011;7733;51.554;13.590;2023-05-20T11:19:27;17.10;;;15.60;;
15261;SDS011;7733;51.554;13.590;2023-05-20T11:21:53;18.30;;;16.50;;
15261;SDS011;7733;51.554;13.590;2023-05-20T11:24:25;17.57;;;15.90;;
15261;SDS011;7733;51.554;13.590;2023-05-20T11:26:55;16.70;;;15.33;;
15261;SDS011;7733;51.554;13.590;2023-05-20T11:29:22;15.37;;;14.10;;
15261;SDS011;7733;51.554;13.590;2023-05-20T11:31:50;16.37;;;14.80;;
15261;SDS011;7733;51.554;13.590;2023-05-20T11:34:19;19.63;;;15.60;;
15261;SDS011;7733;51.554;13.590;2023-05-20T11:36:46;14.70;;;13.30;;
15261;SDS011;7733;51.554;13.590;2023-05-20T11:39:16;13.43;;;12.20;;
15261;SDS011;7733;51.554;13.590;2023-05-20T11:41:41;13.67;;;12.30;;
15261;SDS011;7733;51.554;13.590;2023-05-20T11:44:10;13.33;;;12.07;;
15261;SDS011;7733;51.554;13.590;2023-05-20T11:46:40;14.27;;;12.90;;
15261;SDS011;7733;51.554;13.590;2023-05-20T11:49:07;15.40;;;13.93;;
15261;SDS011;7733;51.554;13.590;2023-05-20T11:51:33;15.53;;;14.10;;
15261;SDS011;7733;51.554;13.590;2023-05-20T11:54:02;15.83;;;14.43;;
15261;SDS011;7733;51.554;13.590;2023-05-20T11:56:33;15.40;;;14.10;;
15261;SDS011;7733;51.554;13.590;2023-05-20T11:59:03;13.53;;;12.33;;
15261;SDS011;7733;51.554;13.590;2023-05-20T12:01:37;12.93;;;11.83;;
15261;SDS011;7733;51.554;13.590;2023-05-20T12:04:10;13.60;;;12.50;;
15261;SDS011;7733;51.554;13.590;2023-05-20T12:06:40;13.83;;;12.70;;
15261;SDS011;7733;51.554;13.590;2023-05-20T12:09:06;13.50;;;12.37;;
15261;SDS011;7733;51.554;13.590;2023-05-20T12:11:36;13.37;;;12.27;;
15261;SDS011;7733;51.554;13.590;2023-05-20T12:14:05;13.93;;;12.07;;
15261;SDS011;7733;51.554;13.590;2023-05-20T12:16:32;13.93;;;12.83;;
15261;SDS011;7733;51.554;13.590;2023-05-20T12:18:59;14.40;;;13.10;;
15261;SDS011;7733;51.554;13.590;2023-05-20T12:21:25;13.07;;;11.77;;
15261;SDS011;7733;51.554;13.590;2023-05-20T12:23:52;12.53;;;11.70;;
15261;SDS011;7733;51.554;13.590;2023-05-20T12:26:24;14.03;;;12.87;;
15261;SDS011;7733;51.554;13.590;2023-05-20T12:28:52;14.17;;;12.97;;
15261;SDS011;7733;51.554;13.590;2023-05-20T12:31:18;13.20;;;12.23;;
15261;SDS011;7733;51.554;13.590;2023-05-20T12:33:44;11.97;;;10.97;;
15261;SDS011;7733;51.554;13.590;2023-05-20T12:36:11;12.40;;;11.23;;
15261;SDS011;7733;51.554;13.590;2023-05-20T12:38:38;11.90;;;10.90;;
15261;SDS011;7733;51.554;13.590;2023-05-20T12:41:04;12.07;;;11.17;;
15261;SDS011;7733;51.554;13.590;2023-05-20T12:43:30;16.07;;;10.67;;
15261;SDS011;7733;51.554;13.590;2023-05-20T12:45:55;10.27;;;9.37;;
15261;SDS011;7733;51.554;13.590;2023-05-20T12:48:21;9.93;;;9.23;;
15261;SDS011;7733;51.554;13.590;2023-05-20T12:50:47;10.53;;;9.83;;
15261;SDS011;7733;51.554;13.590;2023-05-20T12:53:13;10.80;;;9.90;;
15261;SDS011;7733;51.554;13.590;2023-05-20T12:55:38;9.57;;;8.80;;
15261;SDS011;7733;51.554;13.590;2023-05-20T12:58:04;10.07;;;9.17;;
15261;SDS011;7733;51.554;13.590;2023-05-20T13:00:32;11.40;;;10.40;;
15261;SDS011;7733;51.554;13.590;2023-05-20T13:02:59;10.83;;;10.03;;
15261;SDS011;7733;51.554;13.590;2023-05-20T13:05:25;11.00;;;10.10;;
15261;SDS011;7733;51.554;13.590;2023-05-20T13:07:51;10.80;;;9.80;;
15261;SDS011;7733;51.554;13.590;2023-05-20T13:10:16;10.83;;;10.10;;
15261;SDS011;7733;51.554;13.590;2023-05-20T13:12:43;9.83;;;9.07;;
15261;SDS011;7733;51.554;13.590;2023-05-20T13:15:12;10.50;;;9.70;;
15261;SDS011;7733;51.554;13.590;2023-05-20T13:17:38;10.27;;;9.50;;
15261;SDS011;7733;51.554;13.590;2023-05-20T13:20:06;10.07;;;9.27;;
15261;SDS011;7733;51.554;13.590;2023-05-20T13:22:33;10.33;;;9.53;;
15261;SDS011;7733;51.554;13.590;2023-05-20T13:24:59;10.13;;;9.43;;
15261;SDS011;7733;51.554;13.590;2023-05-20T13:27:25;9.77;;;8.93;;
15261;SDS011;7733;51.554;13.590;2023-05-20T13:29:51;9.77;;;9.07;;
15261;SDS011;7733;51.554;13.590;2023-05-20T13:32:17;10.07;;;9.27;;
15261;SDS011;7733;51.554;13.590;2023-05-20T13:34:43;9.57;;;8.67;;
15261;SDS011;7733;51.554;13.590;2023-05-20T13:37:09;9.57;;;8.77;;
15261;SDS011;7733;51.554;13.590;2023-05-20T13:39:34;9.90;;;9.00;;
15261;SDS011;7733;51.554;13.590;2023-05-20T13:42:00;10.47;;;9.57;;
15261;SDS011;7733;51.554;13.590;2023-05-20T13:44:26;10.50;;;8.37;;
15261;SDS011;7733;51.554;13.590;2023-05-20T13:46:52;9.33;;;8.53;;
15261;SDS011;7733;51.554;13.590;2023-05-20T13:49:19;9.87;;;9.07;;
15261;SDS011;7733;51.554;13.590;2023-05-20T13:51:45;8.90;;;8.00;;
15261;SDS011;7733;51.554;13.590;2023-05-20T13:54:11;9.67;;;8.97;;
15261;SDS011;7733;51.554;13.590;2023-05-20T13:56:37;9.60;;;8.77;;
15261;SDS011;7733;51.554;13.590;2023-05-20T13:59:02;10.33;;;9.40;;
15261;SDS011;7733;51.554;13.590;2023-05-20T14:01:31;9.53;;;8.57;;
15261;SDS011;7733;51.554;13.590;2023-05-20T14:03:58;8.97;;;8.27;;
15261;SDS011;7733;51.554;13.590;2023-05-20T14:06:24;12.73;;;11.73;;
15261;SDS011;7733;51.554;13.590;2023-05-20T14:08:52;11.10;;;10.20;;
15261;SDS011;7733;51.554;13.590;2023-05-20T14:11:20;10.30;;;9.60;;
15261;SDS011;7733;51.554;13.590;2023-05-20T14:13:46;10.40;;;9.50;;
15261;SDS011;7733;51.554;13.590;2023-05-20T14:16:11;9.70;;;9.00;;
15261;SDS011;7733;51.554;13.590;2023-05-20T14:18:37;9.60;;;8.83;;
15261;SDS011;7733;51.554;13.590;2023-05-20T14:21:03;10.33;;;9.33;;
15261;SDS011;7733;51.554;13.590;2023-05-20T14:23:29;13.43;;;9.77;;
15261;SDS011;7733;51.554;13.590;2023-05-20T14:25:55;10.00;;;9.10;;
15261;SDS011;7733;51.554;13.590;2023-05-20T14:28:20;10.40;;;9.50;;
15261;SDS011;7733;51.554;13.590;2023-05-20T14:30:46;11.00;;;9.97;;
15261;SDS011;7733;51.554;13.590;2023-05-20T14:33:12;11.17;;;10.27;;
15261;SDS011;7733;51.554;13.590;2023-05-20T14:35:38;11.10;;;10.23;;
15261;SDS011;7733;51.554;13.590;2023-05-20T14:38:03;9.83;;;9.03;;